Waterford, Michigan
Current Conditions -  °F | °C
As of 5:53 AM on Sunday 23 Nov 2014 (Local Time) from KPTK Reporting Station
Broken Clouds Broken Clouds  
Wind Chill: 41°   Ceiling: 2000
Heat Index: 45°   Visibility: 10mi
Dew Point: 41°   Wind: 7mph
Humidity: 86%   Direction: 190°S
Pressure: 29.9"   Gusts: NA
Location:  42.67°N, 83.39°W
Report Text: KPTK 231053Z 19006KT 10SM BKN020 BKN080 BKN170 07/05 A2990 RMK AO2 SLP128 FIRST AUGMENTED OBS OF THE DAY T00720050
Loading
Personal Weather Stations






























Interactive Weather Map New forecast layout! Learn more

10-Day Weather Forecast

Advertisements
Track Severe Weather on mobile